createdAt,value
2023-11-15T00:00:10.700Z,99399.09
2023-11-15T00:02:38.119Z,99420.25
2023-11-15T00:05:05.769Z,99421.00
2023-11-15T00:07:32.876Z,99423.75
2023-11-15T00:09:59.463Z,99406.28
2023-11-15T00:12:26.264Z,99418.16
2023-11-15T00:14:53.589Z,99407.69
2023-11-15T00:17:21.261Z,99424.84
2023-11-15T00:19:47.762Z,99414.66
2023-11-15T00:22:16.172Z,99438.81
2023-11-15T00:24:44.249Z,99438.97
2023-11-15T00:27:12.644Z,99428.25
2023-11-15T00:29:39.205Z,99431.09
2023-11-15T00:32:06.219Z,99438.28
2023-11-15T00:34:33.298Z,99435.47
2023-11-15T00:37:00.948Z,99439.53
2023-11-15T00:39:29.435Z,99436.97
2023-11-15T00:41:59.115Z,99430.94
2023-11-15T00:44:25.696Z,99440.22
2023-11-15T00:46:52.445Z,99432.41
2023-11-15T00:49:19.031Z,99456.84
2023-11-15T00:51:45.566Z,99436.72
2023-11-15T00:54:12.909Z,99465.53
2023-11-15T00:56:39.470Z,99457.25
2023-11-15T00:59:06.764Z,99468.28
2023-11-15T01:01:33.490Z,99460.38
2023-11-15T01:04:00.122Z,99480.38
2023-11-15T01:06:27.045Z,99471.75
2023-11-15T01:08:56.004Z,99480.97
2023-11-15T01:11:24.646Z,99490.13
2023-11-15T01:13:51.231Z,99485.19
2023-11-15T01:16:24.777Z,99488.06
2023-11-15T01:18:54.379Z,99474.28
2023-11-15T01:21:21.514Z,99481.09
2023-11-15T01:23:48.101Z,99488.25
2023-11-15T01:26:14.786Z,99487.66
2023-11-15T01:28:41.570Z,99477.03
2023-11-15T01:31:08.388Z,99501.75
2023-11-15T01:33:35.475Z,99482.53
2023-11-15T01:36:02.105Z,99484.22
2023-11-15T01:38:30.732Z,99493.16
2023-11-15T01:40:57.564Z,99507.94
2023-11-15T01:43:23.990Z,99507.56
2023-11-15T01:45:52.486Z,99473.28
2023-11-15T01:48:19.408Z,99508.47
2023-11-15T01:50:47.817Z,99498.88
2023-11-15T01:53:15.758Z,99497.88
2023-11-15T01:55:44.730Z,99524.16
2023-11-15T01:58:11.391Z,99505.09
2023-11-15T02:00:38.129Z,99516.19
2023-11-15T02:03:04.707Z,99526.06
2023-11-15T02:05:31.355Z,99521.09
2023-11-15T02:07:58.148Z,99527.16
2023-11-15T02:10:24.682Z,99529.22
2023-11-15T02:12:51.241Z,99513.19
2023-11-15T02:15:17.880Z,99525.72
2023-11-15T02:17:44.916Z,99535.47
2023-11-15T02:20:12.052Z,99547.31
2023-11-15T02:22:48.629Z,99541.53
2023-11-15T02:25:15.687Z,99539.22
2023-11-15T02:27:43.256Z,99525.13
2023-11-15T02:30:10.254Z,99536.94
2023-11-15T02:46:58.771Z,99553.88
2023-11-15T02:49:25.278Z,99555.88
2023-11-15T02:51:52.011Z,99568.66
2023-11-15T02:54:18.440Z,99582.50
2023-11-15T02:56:44.979Z,99575.78
2023-11-15T02:59:11.594Z,99573.44
2023-11-15T03:01:47.090Z,99566.53
2023-11-15T03:04:13.816Z,99577.50
2023-11-15T03:06:41.484Z,99609.97
2023-11-15T03:09:09.242Z,99601.03
2023-11-15T03:11:36.388Z,99621.09
2023-11-15T03:14:04.002Z,99618.38
2023-11-15T03:16:31.003Z,99602.41
2023-11-15T03:18:57.507Z,99617.75
2023-11-15T03:21:24.238Z,99643.28
2023-11-15T03:23:50.715Z,99652.75
2023-11-15T03:26:17.462Z,99643.78
2023-11-15T03:28:44.055Z,99659.31
2023-11-15T03:31:13.814Z,99665.00
2023-11-15T03:33:41.834Z,99652.78
2023-11-15T03:36:08.604Z,99652.97
2023-11-15T03:38:35.678Z,99663.41
2023-11-15T03:41:02.406Z,99668.97
2023-11-15T03:43:28.946Z,99681.41
2023-11-15T03:45:55.914Z,99682.84
2023-11-15T03:48:22.627Z,99676.78
2023-11-15T03:50:49.120Z,99695.94
2023-11-15T03:53:15.849Z,99679.91
2023-11-15T03:55:43.873Z,99705.00
2023-11-15T03:58:11.899Z,99687.94
2023-11-15T04:00:38.440Z,99690.34
2023-11-15T04:03:05.165Z,99691.31
2023-11-15T04:05:33.006Z,99718.03
2023-11-15T04:08:00.292Z,99724.69
2023-11-15T04:10:26.929Z,99717.63
2023-11-15T04:12:55.669Z,99732.94
2023-11-15T04:15:25.440Z,99731.34
2023-11-15T04:17:52.108Z,99731.31
2023-11-15T04:20:19.035Z,99757.91
2023-11-15T04:22:45.970Z,99740.63
2023-11-15T04:25:12.698Z,99770.41
2023-11-15T04:27:41.571Z,99753.09
2023-11-15T04:30:11.248Z,99744.84
2023-11-15T04:32:37.897Z,99757.22
2023-11-15T04:35:04.913Z,99777.03
2023-11-15T04:37:31.367Z,99779.38
2023-11-15T04:39:58.137Z,99787.59
2023-11-15T04:42:25.912Z,99804.06
2023-11-15T04:44:52.441Z,99808.03
2023-11-15T04:47:19.508Z,99803.25
2023-11-15T04:49:46.751Z,99800.16
2023-11-15T04:52:13.247Z,99813.41
2023-11-15T04:54:39.770Z,99809.34
2023-11-15T04:57:06.389Z,99826.38
2023-11-15T04:59:33.150Z,99844.97
2023-11-15T05:02:00.030Z,99837.31
2023-11-15T05:04:27.295Z,99857.34
2023-11-15T05:06:55.620Z,99837.50
2023-11-15T05:09:24.129Z,99843.69
2023-11-15T05:12:26.528Z,99870.34
2023-11-15T05:15:08.664Z,99846.91
2023-11-15T05:21:22.277Z,99871.84
2023-11-15T05:23:49.418Z,99861.59
2023-11-15T05:26:17.417Z,99869.88
2023-11-15T05:28:44.612Z,99895.78
2023-11-15T05:31:11.170Z,99887.41
2023-11-15T05:33:37.788Z,99909.56
2023-11-15T05:36:04.533Z,99902.19
2023-11-15T05:38:31.074Z,99897.13
2023-11-15T05:40:58.422Z,99896.84
2023-11-15T05:43:24.880Z,99909.94
2023-11-15T05:45:51.475Z,99921.50
2023-11-15T05:48:19.058Z,99908.59
2023-11-15T05:50:49.092Z,99904.91
2023-11-15T05:53:17.113Z,99921.38
2023-11-15T05:55:43.588Z,99925.97
2023-11-15T05:58:10.919Z,99949.53
2023-11-15T06:00:37.460Z,99942.72
2023-11-15T06:03:04.738Z,99947.63
2023-11-15T06:05:31.530Z,99954.53
2023-11-15T06:08:03.425Z,99973.72
2023-11-15T06:10:31.551Z,99969.81
2023-11-15T06:12:58.101Z,99953.38
2023-11-15T06:15:25.286Z,99974.91
2023-11-15T06:17:55.786Z,99974.38
2023-11-15T06:20:22.334Z,99990.25
2023-11-15T06:22:53.243Z,99979.72
2023-11-15T06:25:20.270Z,99987.16
2023-11-15T06:27:47.129Z,99997.28
2023-11-15T06:30:17.990Z,100021.59
2023-11-15T06:32:45.797Z,100007.41
2023-11-15T06:35:20.042Z,100018.78
2023-11-15T06:37:47.829Z,100010.38
2023-11-15T06:40:15.916Z,100010.91
2023-11-15T06:46:18.712Z,100035.63
2023-11-15T06:48:45.531Z,100053.13
2023-11-15T06:51:12.174Z,100057.75
2023-11-15T06:53:39.542Z,100060.03
2023-11-15T06:56:08.731Z,100062.19
2023-11-15T06:58:36.935Z,100053.41
2023-11-15T07:01:06.599Z,100075.44
2023-11-15T07:03:33.311Z,100059.25
2023-11-15T07:05:59.848Z,100088.38
2023-11-15T07:08:27.584Z,100055.94
2023-11-15T07:10:56.309Z,100089.75
2023-11-15T07:13:23.358Z,100085.06
2023-11-15T07:15:51.341Z,100083.00
2023-11-15T07:18:18.503Z,100099.22
2023-11-15T07:20:46.136Z,100100.94
2023-11-15T07:25:07.591Z,100116.66
2023-11-15T07:36:18.824Z,100141.25
2023-11-15T07:39:27.242Z,100124.81
2023-11-15T07:41:55.907Z,100157.13
2023-11-15T08:39:55.513Z,100246.41
2023-11-15T08:42:22.825Z,100280.50
2023-11-15T08:44:49.648Z,100258.91
2023-11-15T08:47:18.812Z,100254.66
2023-11-15T08:49:49.660Z,100266.31
2023-11-15T08:52:19.816Z,100280.91
2023-11-15T08:54:47.483Z,100270.88
2023-11-15T08:57:30.163Z,100299.78
2023-11-15T08:59:57.293Z,100316.44
2023-11-15T09:02:24.190Z,100299.16
2023-11-15T09:05:03.181Z,100299.63
2023-11-15T09:07:41.952Z,100299.31
2023-11-15T09:10:10.396Z,100305.56
2023-11-15T09:12:39.666Z,100317.81
2023-11-15T09:15:17.114Z,100330.31
2023-11-15T09:18:11.458Z,100345.38
2023-11-15T09:20:45.381Z,100323.84
2023-11-15T09:23:31.090Z,100329.50
2023-11-15T09:26:01.146Z,100345.69
2023-11-15T09:28:42.500Z,100355.47
2023-11-15T09:31:27.033Z,100375.91
2023-11-15T09:33:55.872Z,100336.31
2023-11-15T09:36:22.668Z,100353.31
2023-11-15T09:38:51.764Z,100378.97
2023-11-15T09:41:25.031Z,100348.81
2023-11-15T09:43:57.735Z,100351.75
2023-11-15T09:46:28.125Z,100372.78
2023-11-15T09:49:00.399Z,100373.81
2023-11-15T09:51:35.478Z,100377.66
2023-11-15T09:54:16.264Z,100383.91
2023-11-15T09:57:25.963Z,100387.91
2023-11-15T10:00:00.645Z,100392.06
2023-11-15T10:02:37.892Z,100371.91
2023-11-15T10:13:12.642Z,100375.84
2023-11-15T10:15:49.946Z,100421.09
2023-11-15T10:18:43.413Z,100421.03
2023-11-15T10:21:13.349Z,100385.81
2023-11-15T10:23:41.857Z,100395.75
2023-11-15T10:26:12.405Z,100421.94
2023-11-15T10:28:58.925Z,100394.97
2023-11-15T10:31:26.269Z,100423.84
2023-11-15T10:33:55.008Z,100438.25
2023-11-15T10:36:26.550Z,100403.69
2023-11-15T10:39:00.865Z,100432.41
2023-11-15T10:41:30.954Z,100422.16
2023-11-15T10:43:58.312Z,100402.41
2023-11-15T10:46:32.804Z,100430.47
2023-11-15T10:49:12.082Z,100454.94
2023-11-15T10:51:45.798Z,100426.41
2023-11-15T10:58:06.542Z,100448.28
2023-11-15T11:00:37.720Z,100424.19
2023-11-15T11:04:03.230Z,100432.94
2023-11-15T11:06:59.462Z,100473.09
2023-11-15T11:12:59.619Z,100477.50
2023-11-15T11:15:28.950Z,100467.94
2023-11-15T11:18:13.627Z,100457.38
2023-11-15T11:20:55.588Z,100468.41
2023-11-15T11:23:23.418Z,100457.84
2023-11-15T11:25:53.043Z,100486.41
2023-11-15T11:28:23.009Z,100486.00
2023-11-15T11:31:16.295Z,100504.44
2023-11-15T11:34:05.857Z,100510.66
2023-11-15T11:37:02.060Z,100485.13
2023-11-15T11:39:48.623Z,100518.94
2023-11-15T11:42:25.608Z,100487.03
2023-11-15T11:45:07.485Z,100481.81
2023-11-15T11:47:43.033Z,100522.34
2023-11-15T11:53:14.027Z,100483.06
2023-11-15T11:53:23.945Z,100521.72
2023-11-15T11:56:02.622Z,100520.53
2023-11-15T11:58:52.666Z,100501.75
2023-11-15T12:01:38.253Z,100486.53
2023-11-15T12:04:08.370Z,100493.41
2023-11-15T12:06:40.909Z,100493.44
2023-11-15T12:09:13.079Z,100500.16
2023-11-15T12:11:41.906Z,100492.47
2023-11-15T12:14:25.149Z,100514.22
2023-11-15T12:16:55.953Z,100493.03
2023-11-15T12:19:40.667Z,100505.34
2023-11-15T12:22:10.150Z,100519.06
2023-11-15T12:24:39.200Z,100525.75
2023-11-15T12:27:05.879Z,100516.13
2023-11-15T12:29:38.987Z,100546.38
2023-11-15T12:32:23.762Z,100520.22
2023-11-15T12:34:50.734Z,100528.38
2023-11-15T12:45:32.385Z,100549.03
2023-11-15T12:48:06.338Z,100539.34
2023-11-15T12:54:13.464Z,100542.56
2023-11-15T12:56:38.323Z,100550.56
2023-11-15T12:59:12.102Z,100579.03
2023-11-15T13:01:52.007Z,100582.31
2023-11-15T13:04:18.782Z,100554.56
2023-11-15T13:06:59.820Z,100593.41
2023-11-15T13:12:24.562Z,100577.59
2023-11-15T13:14:55.840Z,100556.59
2023-11-15T13:17:22.639Z,100579.50
2023-11-15T13:19:50.832Z,100598.56
2023-11-15T13:22:17.759Z,100588.38
2023-11-15T13:24:49.645Z,100575.88
2023-11-15T13:27:19.187Z,100580.41
2023-11-15T13:29:46.030Z,100589.00
2023-11-15T13:32:56.654Z,100607.41
2023-11-15T13:35:23.478Z,100597.06
2023-11-15T13:38:17.081Z,100620.03
2023-11-15T13:41:09.468Z,100629.94
2023-11-15T13:43:47.033Z,100607.09
2023-11-15T13:46:23.236Z,100600.28
2023-11-15T13:56:14.436Z,100603.84
2023-11-15T13:59:15.257Z,100601.56
2023-11-15T14:01:49.106Z,100601.13
2023-11-15T14:04:21.664Z,100615.50
2023-11-15T14:06:53.843Z,100618.22
2023-11-15T14:09:22.067Z,100640.34
2023-11-15T14:12:10.387Z,100615.38
2023-11-15T14:14:45.547Z,100627.09
2023-11-15T14:17:13.190Z,100649.25
2023-11-15T14:19:43.083Z,100655.09
2023-11-15T14:22:20.936Z,100641.91
2023-11-15T14:28:52.412Z,100649.72
2023-11-15T14:31:19.299Z,100638.16
2023-11-15T14:34:42.169Z,100655.22
2023-11-15T14:37:11.952Z,100649.09
2023-11-15T14:40:03.984Z,100655.13
2023-11-15T14:42:34.378Z,100655.09
2023-11-15T14:52:45.505Z,100694.97
2023-11-15T14:55:15.687Z,100687.31
2023-11-15T14:57:43.091Z,100677.03
2023-11-15T15:00:40.534Z,100662.66
2023-11-15T15:03:07.228Z,100688.16
2023-11-15T15:05:33.799Z,100691.59
2023-11-15T15:08:18.901Z,100663.63
2023-11-15T15:15:24.482Z,100694.56
2023-11-15T15:17:51.384Z,100693.34
2023-11-15T15:20:19.979Z,100687.69
2023-11-15T15:22:48.038Z,100699.34
2023-11-15T15:25:15.405Z,100709.63
2023-11-15T15:27:42.630Z,100712.47
2023-11-15T15:30:33.960Z,100675.78
2023-11-15T15:33:02.202Z,100716.09
2023-11-15T15:35:30.347Z,100718.59
2023-11-15T15:37:57.729Z,100702.69
2023-11-15T15:40:31.702Z,100714.41
2023-11-15T15:42:58.656Z,100725.09
2023-11-15T15:45:27.724Z,100735.38
2023-11-15T15:47:58.067Z,100742.63
2023-11-15T15:50:36.232Z,100728.91
2023-11-15T15:53:03.356Z,100760.66
2023-11-15T15:55:30.288Z,100759.09
2023-11-15T15:57:56.922Z,100729.13
2023-11-15T16:00:34.825Z,100746.75
2023-11-15T16:03:01.663Z,100741.91
2023-11-15T16:16:35.007Z,100759.84
2023-11-15T16:19:07.230Z,100756.69
2023-11-15T16:21:34.001Z,100752.41
2023-11-15T16:24:01.655Z,100776.03
2023-11-15T16:26:28.204Z,100766.09
2023-11-15T16:28:57.644Z,100745.31
2023-11-15T16:31:24.164Z,100770.66
2023-11-15T16:33:50.720Z,100779.72
2023-11-15T16:36:19.051Z,100767.22
2023-11-15T16:38:45.597Z,100766.63
2023-11-15T16:41:18.562Z,100763.63
2023-11-15T16:43:45.091Z,100786.09
2023-11-15T16:46:11.587Z,100780.41
2023-11-15T16:48:38.171Z,100799.31
2023-11-15T16:51:23.697Z,100806.66
2023-11-15T16:53:50.435Z,100807.50
2023-11-15T16:56:16.875Z,100808.88
2023-11-15T16:58:51.669Z,100802.78
2023-11-15T17:01:18.602Z,100784.47
2023-11-15T17:03:47.722Z,100798.31
2023-11-15T17:06:17.274Z,100809.75
2023-11-15T17:08:44.744Z,100822.53
2023-11-15T17:11:21.123Z,100795.78
2023-11-15T17:13:49.945Z,100796.53
2023-11-15T17:16:19.807Z,100814.88
2023-11-15T17:18:46.914Z,100804.91
2023-11-15T17:21:13.735Z,100816.69
2023-11-15T17:23:42.077Z,100832.53
2023-11-15T17:26:13.493Z,100797.66
2023-11-15T17:28:42.874Z,100825.69
2023-11-15T17:31:10.168Z,100816.06
2023-11-15T17:33:39.336Z,100811.81
2023-11-15T17:36:06.378Z,100819.03
2023-11-15T17:38:33.177Z,100828.03
2023-11-15T17:41:00.684Z,100836.81
2023-11-15T17:43:27.945Z,100830.63
2023-11-15T17:45:54.627Z,100835.34
2023-11-15T17:48:21.166Z,100842.50
2023-11-15T17:50:47.732Z,100842.56
2023-11-15T17:53:19.076Z,100838.16
2023-11-15T17:55:52.774Z,100836.00
2023-11-15T17:58:27.894Z,100849.63
2023-11-15T18:01:00.060Z,100812.78
2023-11-15T18:03:29.920Z,100840.56
2023-11-15T18:13:38.612Z,100817.44
2023-11-15T18:16:21.836Z,100833.50
2023-11-15T18:19:06.379Z,100833.56
2023-11-15T18:21:33.374Z,100805.09
2023-11-15T18:24:00.797Z,100839.94
2023-11-15T18:26:47.998Z,100826.44
2023-11-15T18:29:14.833Z,100819.56
2023-11-15T18:31:41.523Z,100853.13
2023-11-15T18:34:08.298Z,100846.78
2023-11-15T18:36:58.747Z,100823.19
2023-11-15T18:39:25.442Z,100834.78
2023-11-15T18:41:52.519Z,100839.06
2023-11-15T18:44:21.445Z,100839.47
2023-11-15T18:46:50.330Z,100848.06
2023-11-15T18:49:24.703Z,100839.47
2023-11-15T18:51:53.989Z,100849.09
2023-11-15T18:54:21.512Z,100829.59
2023-11-15T18:56:48.108Z,100845.22
2023-11-15T18:59:15.111Z,100844.41
2023-11-15T19:01:45.907Z,100829.69
2023-11-15T19:04:13.475Z,100844.56
2023-11-15T19:06:47.036Z,100849.72
2023-11-15T19:09:17.761Z,100823.91
2023-11-15T19:11:45.292Z,100851.44
2023-11-15T19:19:06.122Z,100853.00
2023-11-15T19:21:39.272Z,100826.34
2023-11-15T19:24:11.142Z,100828.34
2023-11-15T19:26:38.229Z,100829.75
2023-11-15T19:29:15.536Z,100854.78
2023-11-15T19:31:55.845Z,100867.06
2023-11-15T19:34:27.394Z,100847.69
2023-11-15T19:37:09.773Z,100853.84
2023-11-15T19:39:51.476Z,100853.13
2023-11-15T19:42:18.459Z,100822.47
2023-11-15T19:44:46.703Z,100841.41
2023-11-15T19:47:44.974Z,100820.19
2023-11-15T19:50:12.843Z,100835.72
2023-11-15T19:52:45.484Z,100844.94
2023-11-15T19:55:14.794Z,100821.50
2023-11-15T19:57:44.110Z,100849.81
2023-11-15T20:00:16.526Z,100850.66
2023-11-15T20:15:43.558Z,100820.81
2023-11-15T20:26:05.875Z,100815.41
2023-11-15T20:33:49.627Z,100822.84
2023-11-15T20:48:45.879Z,100843.47
2023-11-15T20:51:48.947Z,100841.31
2023-11-15T20:54:59.878Z,100842.22
2023-11-15T20:57:39.341Z,100813.06
2023-11-15T21:00:51.112Z,100811.09
2023-11-15T21:03:58.439Z,100815.56
2023-11-15T21:07:06.225Z,100823.28
2023-11-15T21:22:50.389Z,100798.22
2023-11-15T21:36:43.052Z,100822.63
2023-11-15T22:36:19.071Z,100796.13
2023-11-15T22:38:52.020Z,100784.94
2023-11-15T22:41:19.190Z,100794.72
2023-11-15T22:43:46.010Z,100792.34
2023-11-15T22:46:13.550Z,100773.53
2023-11-15T22:48:40.346Z,100792.75
2023-11-15T22:51:07.399Z,100775.47
2023-11-15T22:53:34.971Z,100765.84
2023-11-15T22:56:03.913Z,100764.66
2023-11-15T22:58:32.877Z,100779.72
2023-11-15T23:00:59.704Z,100780.16
2023-11-15T23:03:26.879Z,100761.59
2023-11-15T23:05:54.880Z,100762.75
2023-11-15T23:08:21.743Z,100770.00
2023-11-15T23:10:48.540Z,100749.75
2023-11-15T23:13:16.707Z,100778.03
2023-11-15T23:15:43.397Z,100770.16
2023-11-15T23:18:11.330Z,100776.66
2023-11-15T23:20:41.543Z,100773.72
2023-11-15T23:23:08.565Z,100768.47
2023-11-15T23:25:39.083Z,100758.91
2023-11-15T23:28:07.476Z,100741.38
2023-11-15T23:30:36.196Z,100760.25
2023-11-15T23:33:03.172Z,100756.47
2023-11-15T23:35:29.668Z,100767.16
2023-11-15T23:37:59.334Z,100767.47
2023-11-15T23:40:30.264Z,100752.47
2023-11-15T23:42:57.616Z,100757.34
2023-11-15T23:45:24.763Z,100751.63
2023-11-15T23:47:52.530Z,100746.38
2023-11-15T23:50:19.941Z,100753.94
2023-11-15T23:52:51.214Z,100756.50
2023-11-15T23:55:17.660Z,100758.81
2023-11-15T23:57:44.444Z,100756.41
